Time;durP1;ratioP1;P1;durP2;ratioP2;P2;SDS_P1;SDS_P2;PMS_P1;PMS_P2;Temp;Humidity;BMP_temperature;BMP_pressure;BME280_temperature;BME280_humidity;BME280_pressure;Samples;Min_cycle;Max_cycle;Signal;HPM_P1;HPM_P2
2022/01/25 00:08:26;;;;;;;34.35;23.00;;;;;;;-0.23;76.16;100837.03;5066209;28;20068;-68
2022/01/25 00:25:11;;;;;;;37.40;23.10;;;;;;;-0.45;76.14;100770.78;5066199;28;20079;-68
2022/01/25 00:27:50;;;;;;;35.00;24.40;;;;;;;-0.13;76.14;100817.16;5066143;28;20043;-68
2022/01/25 00:30:44;;;;;;;33.95;24.25;;;;;;;-0.49;75.99;100748.16;5065885;28;20037;-69
2022/01/25 00:33:16;;;;;;;36.25;24.98;;;;;;;-0.09;76.03;100808.53;5066143;28;20044;-68
2022/01/25 00:35:48;;;;;;;38.13;25.40;;;;;;;-0.07;76.26;100817.22;5065678;28;20037;-68
2022/01/25 00:38:19;;;;;;;39.00;25.65;;;;;;;-0.10;76.23;100804.16;5065639;28;20346;-68
2022/01/25 00:40:48;;;;;;;37.90;25.50;;;;;;;-0.05;76.40;100816.38;5065156;28;20029;-68
2022/01/25 00:43:20;;;;;;;39.83;26.10;;;;;;;-0.01;76.21;100809.47;5065637;28;20041;-67
2022/01/25 00:45:53;;;;;;;41.40;28.85;;;;;;;0.01;76.15;100807.75;5065936;28;20059;-68
2022/01/25 00:48:40;;;;;;;40.65;27.83;;;;;;;0.02;76.15;100814.72;5065693;28;20045;-68
2022/01/25 00:51:21;;;;;;;42.20;28.08;;;;;;;-0.26;76.34;100797.91;5064734;28;20044;-68
2022/01/25 00:53:58;;;;;;;40.25;26.33;;;;;;;0.04;76.38;100815.63;5065524;28;20044;-68
2022/01/25 00:56:32;;;;;;;42.38;26.27;;;;;;;0.06;76.34;100815.63;5065427;28;20048;-69
2022/01/25 00:59:07;;;;;;;42.08;28.35;;;;;;;0.07;76.22;100813.03;5065439;28;20232;-68
2022/01/25 01:01:42;;;;;;;42.92;29.52;;;;;;;0.07;76.29;100805.22;5064849;28;20044;-68
2022/01/25 01:04:14;;;;;;;42.38;28.83;;;;;;;0.09;76.21;100805.25;5064197;28;20045;-69
2022/01/25 01:06:47;;;;;;;39.67;26.33;;;;;;;-0.21;76.35;100736.31;5065286;28;20054;-68
2022/01/25 01:09:22;;;;;;;39.30;25.58;;;;;;;0.11;76.29;100795.69;5065278;28;20251;-68
2022/01/25 01:11:59;;;;;;;41.60;28.58;;;;;;;-0.49;76.27;100718.63;5065362;28;20221;-68
2022/01/25 01:14:51;;;;;;;42.92;26.38;;;;;;;-0.82;76.17;100662.72;5065275;28;20253;-68
2022/01/25 01:28:48;;;;;;;43.28;27.73;;;;;;;0.13;76.42;100787.03;5065234;28;20037;-69
2022/01/25 01:32:06;;;;;;;36.45;25.30;;;;;;;0.18;76.41;100781.88;5031326;28;20045;-68
2022/01/25 01:45:57;;;;;;;37.05;25.67;;;;;;;0.23;76.28;100770.63;5066376;28;20233;-68
2022/01/25 01:48:33;;;;;;;39.67;27.30;;;;;;;0.26;76.09;100773.25;5069339;28;20343;-68
2022/01/25 01:51:15;;;;;;;40.10;25.48;;;;;;;-0.99;76.07;100580.09;5068401;28;20091;-68
2022/01/25 01:53:48;;;;;;;41.33;27.75;;;;;;;-0.66;76.24;100662.88;5069321;28;20037;-68
2022/01/25 01:56:21;;;;;;;37.72;26.70;;;;;;;0.26;76.30;100765.44;5069087;28;20036;-68
2022/01/25 01:58:56;;;;;;;35.25;24.15;;;;;;;0.28;76.25;100761.09;5068922;28;20091;-68
2022/01/25 02:01:30;;;;;;;37.35;26.15;;;;;;;0.26;76.42;100757.59;5069144;28;20174;-68
2022/01/25 02:04:05;;;;;;;36.95;24.77;;;;;;;0.28;76.32;100755.88;5069026;28;20083;-69
2022/01/25 02:06:39;;;;;;;;;;;;;;;0.25;76.73;100754.97;5069028;28;20052;-67
2022/01/25 02:09:13;;;;;;;38.72;25.23;;;;;;;0.26;76.34;100761.94;5052056;28;19962;-67
2022/01/25 02:11:45;;;;;;;40.92;27.25;;;;;;;0.31;76.31;100752.44;5069141;28;20045;-67
2022/01/25 02:14:18;;;;;;;44.47;28.20;;;;;;;0.32;76.04;100758.53;5068402;28;20060;-67
2022/01/25 02:17:06;;;;;;;35.65;24.63;;;;;;;0.32;75.91;100755.91;5069120;28;20049;-67
2022/01/25 02:22:36;;;;;;;37.45;25.48;;;;;;;0.29;75.89;100743.72;5068459;28;20064;-68
2022/01/25 02:25:11;;;;;;;29.98;23.25;;;;;;;-0.28;75.78;100643.31;5069131;28;20053;-68
2022/01/25 02:27:43;;;;;;;37.47;24.80;;;;;;;0.33;75.85;100749.84;5069210;28;20068;-68
2022/01/25 02:30:16;;;;;;;41.83;25.48;;;;;;;0.06;75.66;100693.13;5069063;28;20296;-68
2022/01/25 02:32:50;;;;;;;37.97;25.10;;;;;;;0.38;75.66;100745.53;5067991;28;20079;-67
2022/01/25 02:35:23;;;;;;;36.78;24.20;;;;;;;0.38;75.48;100742.94;5068548;28;20159;-70
2022/01/25 02:37:56;;;;;;;35.55;25.70;;;;;;;0.42;75.52;100742.09;5068227;28;20053;-68
2022/01/25 02:40:28;;;;;;;36.42;23.30;;;;;;;0.39;75.34;100740.31;5067194;28;20040;-68
2022/01/25 02:43:00;;;;;;;34.90;25.75;;;;;;;0.04;75.47;100679.19;5068229;28;20095;-68
2022/01/25 02:45:35;;;;;;;39.63;24.90;;;;;;;0.40;75.35;100738.59;5066838;28;20091;-69
2022/01/25 02:51:00;;;;;;;39.95;24.48;;;;;;;0.40;75.44;100735.97;5067036;28;20052;-68
2022/01/25 02:53:33;;;;;;;32.13;22.90;;;;;;;-1.38;75.21;100422.69;5067865;28;20104;-68
2022/01/25 02:56:02;;;;;;;34.65;23.65;;;;;;;0.38;75.47;100722.06;5067770;28;20041;-68
2022/01/25 02:58:32;;;;;;;38.25;24.40;;;;;;;0.11;75.43;100679.25;5067489;28;20100;-68
2022/01/25 03:01:02;;;;;;;35.75;23.90;;;;;;;0.38;75.54;100725.53;5067695;28;20108;-68
2022/01/25 03:03:32;;;;;;;34.15;24.05;;;;;;;-0.39;75.34;100591.09;5067913;28;20078;-68
2022/01/25 03:06:04;;;;;;;37.58;25.42;;;;;;;0.37;75.50;100721.19;5067332;28;20057;-68
2022/01/25 03:08:33;;;;;;;34.08;25.13;;;;;;;-1.10;75.63;100489.75;5050637;28;20024;-68
2022/01/25 03:11:04;;;;;;;34.63;24.70;;;;;;;0.37;75.80;100721.19;5067460;28;20041;-67
2022/01/25 03:13:47;;;;;;;31.75;22.63;;;;;;;0.38;75.67;100720.31;5066858;28;20035;-68
2022/01/25 03:16:29;;;;;;;;;;;;;;;0.35;75.72;100722.03;5050357;28;20045;-68
2022/01/25 03:19:26;;;;;;;32.78;22.42;;;;;;;0.36;75.58;100721.16;5067424;28;20088;-67
2022/01/25 03:22:04;;;;;;;36.55;25.35;;;;;;;0.36;75.57;100721.16;5049739;28;20153;-66
2022/01/25 03:24:37;;;;;;;35.28;24.50;;;;;;;0.39;75.54;100719.47;5066750;28;20048;-67
2022/01/25 03:27:09;;;;;;;33.60;25.13;;;;;;;0.41;75.47;100722.09;5066761;28;20308;-67
2022/01/25 03:29:42;;;;;;;39.03;25.88;;;;;;;-0.66;75.87;100540.50;5067050;28;20044;-67
2022/01/25 03:32:14;;;;;;;35.00;23.88;;;;;;;-0.83;75.68;100541.22;5066646;28;20293;-67
2022/01/25 03:34:47;;;;;;;36.42;24.60;;;;;;;0.39;75.57;100723.81;5067209;28;20110;-67
2022/01/25 03:37:20;;;;;;;32.17;23.83;;;;;;;0.40;75.71;100710.78;5066426;28;20201;-68
2022/01/25 03:39:53;;;;;;;34.25;26.13;;;;;;;0.13;75.57;100664.50;5067419;28;20095;-67
2022/01/25 03:42:25;;;;;;;34.33;25.77;;;;;;;0.44;75.19;100714.28;5049333;28;20178;-67
2022/01/25 03:45:00;;;;;;;34.60;23.77;;;;;;;0.45;75.39;100719.50;5066639;28;20045;-68
2022/01/25 03:47:45;;;;;;;35.40;24.10;;;;;;;0.44;75.53;100712.53;5066263;28;20090;-68
2022/01/25 03:50:16;;;;;;;38.33;27.67;;;;;;;0.44;75.43;100709.94;5066546;28;20053;-68
2022/01/25 03:52:52;;;;;;;35.13;24.92;;;;;;;0.12;75.41;100656.66;5065883;28;20040;-67
2022/01/25 03:55:30;;;;;;;36.60;24.27;;;;;;;-1.15;75.31;100551.28;5066646;28;20060;-67
2022/01/25 03:58:05;;;;;;;32.95;23.92;;;;;;;0.25;75.89;100976.63;5065988;28;20181;-67
2022/01/25 04:00:39;;;;;;;33.08;23.83;;;;;;;0.48;75.51;100705.63;5066034;28;20045;-67
2022/01/25 04:03:16;;;;;;;36.70;23.98;;;;;;;0.45;75.43;100708.19;5066813;28;20036;-67
2022/01/25 04:05:51;;;;;;;35.30;24.08;;;;;;;0.47;75.42;100707.34;5066110;28;20252;-67
2022/01/25 04:08:25;;;;;;;;;;;;;;;0.41;75.69;100709.91;5066982;28;20059;-68
2022/01/25 04:10:57;;;;;;;31.58;23.52;;;;;;;0.42;75.73;100703.84;5066074;28;19921;-68
2022/01/25 04:13:29;;;;;;;35.95;24.30;;;;;;;0.45;75.56;100706.47;5066394;28;20044;-69
2022/01/25 04:16:07;;;;;;;34.75;23.15;;;;;;;0.48;75.42;100703.00;5066061;28;20045;-68
2022/01/25 04:18:54;;;;;;;33.65;24.45;;;;;;;0.49;75.40;100703.03;5048535;28;20048;-68
2022/01/25 04:21:44;;;;;;;36.15;26.15;;;;;;;0.45;75.61;100701.25;5065130;28;20044;-68
2022/01/25 04:27:07;;;;;;;32.45;24.35;;;;;;;-0.54;75.37;100517.19;5065788;28;20044;-68
2022/01/25 04:29:40;;;;;;;32.45;22.90;;;;;;;0.50;75.50;100690.84;5065655;28;20102;-68
2022/01/25 04:32:14;;;;;;;35.65;24.25;;;;;;;0.50;75.49;100688.25;5065710;28;20044;-68
2022/01/25 04:35:07;;;;;;;36.38;25.30;;;;;;;0.13;75.51;100612.38;5065966;28;20041;-68
2022/01/25 04:49:07;;;;;;;33.70;23.48;;;;;;;0.60;75.67;100677.88;5065715;28;20041;-68
2022/01/25 04:51:55;;;;;;;32.60;22.63;;;;;;;0.34;76.11;100647.28;5065438;28;20040;-68
2022/01/25 04:57:35;;;;;;;32.75;21.52;;;;;;;0.58;76.16;100669.16;5063054;28;20056;-68
2022/01/25 05:00:15;;;;;;;36.65;23.83;;;;;;;0.40;76.10;100626.44;5065435;28;20045;-68
2022/01/25 05:02:52;;;;;;;30.73;19.48;;;;;;;0.61;76.23;100658.75;5064834;28;20037;-68
2022/01/25 05:05:30;;;;;;;37.20;22.83;;;;;;;0.61;76.35;100687.44;5064965;28;20103;-68
2022/01/25 05:08:15;;;;;;;28.70;18.77;;;;;;;0.61;76.46;100656.13;5064456;28;20094;-68
2022/01/25 05:10:53;;;;;;;35.33;21.05;;;;;;;0.61;76.58;100656.13;5064331;28;20056;-68
2022/01/25 05:13:40;;;;;;;33.63;22.05;;;;;;;0.61;76.67;100663.97;5064658;28;20041;-68
2022/01/25 05:16:28;;;;;;;32.78;19.08;;;;;;;0.63;76.47;100670.94;5065334;28;20324;-68
2022/01/25 05:19:10;;;;;;;34.65;21.08;;;;;;;0.65;76.44;100664.84;5064049;28;20251;-67
2022/01/25 05:24:33;;;;;;;31.20;20.83;;;;;;;-1.15;76.55;100360.50;5064976;28;20099;-68
2022/01/25 05:27:06;;;;;;;30.83;19.88;;;;;;;-1.71;76.69;100275.94;5064164;28;20045;-67
2022/01/25 05:29:40;;;;;;;39.15;22.85;;;;;;;0.61;76.83;100661.34;5064892;28;20043;-69
2022/01/25 05:32:13;;;;;;;30.42;20.60;;;;;;;0.08;76.61;100569.75;5064969;28;20041;-68
2022/01/25 05:34:45;;;;;;;32.47;22.77;;;;;;;0.65;76.70;100664.84;5064824;28;20041;-68
2022/01/25 05:37:17;;;;;;;34.30;21.63;;;;;;;0.67;76.64;100662.25;5064900;28;20041;-68
2022/01/25 05:39:51;;;;;;;31.50;20.02;;;;;;;-0.05;76.42;100531.44;5065174;28;20087;-68
2022/01/25 05:42:48;;;;;;;34.30;20.85;;;;;;;0.65;76.73;100656.16;5064248;28;20045;-67
2022/01/25 05:45:37;;;;;;;41.83;23.40;;;;;;;0.69;76.70;100657.91;5064758;28;20041;-67
2022/01/25 05:48:09;;;;;;;34.75;22.85;;;;;;;0.65;76.78;100646.59;5064807;28;20041;-68
2022/01/25 05:50:41;;;;;;;35.97;23.35;;;;;;;0.67;76.84;100662.25;5064660;28;20247;-68
2022/01/25 05:53:13;;;;;;;32.20;20.90;;;;;;;0.69;76.79;100660.53;5064718;28;20319;-68
2022/01/25 05:55:46;;;;;;;38.55;24.27;;;;;;;0.69;76.57;100658.78;5064941;28;20044;-67
2022/01/25 05:58:18;;;;;;;34.83;21.73;;;;;;;0.69;76.75;100653.56;5064656;28;20037;-68
2022/01/25 06:00:51;;;;;;;34.42;21.45;;;;;;;0.68;77.05;100651.81;5063901;28;20293;-68
2022/01/25 06:03:24;;;;;;;35.75;23.00;;;;;;;0.47;76.89;100612.56;5064888;28;20044;-67
2022/01/25 06:05:57;;;;;;;30.45;20.92;;;;;;;0.69;76.71;100661.41;5064384;28;20185;-68
2022/01/25 06:08:26;;;;;;;36.38;21.98;;;;;;;-0.15;76.85;100525.28;5063723;28;20095;-68
2022/01/25 06:10:56;;;;;;;36.15;21.65;;;;;;;0.71;76.78;100659.66;5064291;28;20056;-68
2022/01/25 06:13:26;;;;;;;34.17;20.60;;;;;;;0.68;76.65;100651.81;5064727;28;20091;-67
2022/01/25 06:15:58;;;;;;;35.95;21.67;;;;;;;0.76;76.71;100650.13;5063709;28;20041;-67
2022/01/25 06:18:26;;;;;;;37.00;22.25;;;;;;;0.78;76.50;100657.97;5063533;28;20041;-67
2022/01/25 06:20:57;;;;;;;29.77;19.33;;;;;;;0.76;76.64;100652.75;5067977;28;20041;-68
2022/01/25 06:23:27;;;;;;;36.25;22.33;;;;;;;0.78;76.54;100651.00;5068045;28;20087;-68
2022/01/25 06:25:57;;;;;;;26.98;18.75;;;;;;;0.80;76.55;100664.06;5068000;28;20051;-68
2022/01/25 06:28:27;;;;;;;31.45;19.25;;;;;;;0.78;76.66;100645.78;5068015;28;20040;-68
2022/01/25 06:30:58;;;;;;;34.90;21.52;;;;;;;0.82;76.29;100652.78;5068192;28;20068;-68
2022/01/25 06:33:27;;;;;;;27.15;18.27;;;;;;;0.81;76.38;100653.63;5067925;28;20040;-68
2022/01/25 06:35:57;;;;;;;30.73;18.85;;;;;;;0.53;76.23;100604.78;5068179;28;20037;-68
2022/01/25 06:38:28;;;;;;;32.15;20.65;;;;;;;0.56;76.34;100612.63;5067345;28;20041;-68
2022/01/25 06:40:58;;;;;;;39.00;21.73;;;;;;;0.83;76.32;100667.56;5068059;28;20041;-68
2022/01/25 06:43:28;;;;;;;38.63;20.30;;;;;;;0.85;76.19;100651.91;5067991;28;20112;-68
2022/01/25 06:46:03;;;;;;;32.33;20.52;;;;;;;0.83;76.32;100659.75;5067882;28;20143;-68
2022/01/25 06:48:33;;;;;;;33.50;21.55;;;;;;;0.83;76.43;100654.50;5067779;28;20216;-68
2022/01/25 06:51:03;;;;;;;31.83;20.88;;;;;;;0.85;76.28;100657.13;5067431;28;20246;-68
2022/01/25 06:53:33;;;;;;;30.25;19.75;;;;;;;0.84;76.35;100666.69;5067890;28;20311;-67
2022/01/25 06:56:05;;;;;;;29.73;18.98;;;;;;;0.87;76.21;100663.22;5067638;28;20350;-69
2022/01/25 06:58:34;;;;;;;31.75;18.48;;;;;;;0.87;76.24;100665.84;5067804;28;20339;-68
2022/01/25 07:01:05;;;;;;;38.25;22.10;;;;;;;0.88;76.39;100670.19;5068128;28;20288;-69
2022/01/25 07:03:34;;;;;;;31.90;17.67;;;;;;;0.85;76.38;100663.22;5067543;28;20182;-69
2022/01/25 07:06:04;;;;;;;26.42;18.20;;;;;;;0.89;76.44;100657.16;5067040;28;20393;-68
2022/01/25 07:08:34;;;;;;;30.10;18.45;;;;;;;0.92;76.12;100656.28;5067536;28;20317;-68
2022/01/25 07:11:04;;;;;;;26.50;17.58;;;;;;;0.93;76.21;100658.91;5067220;28;20143;-68
2022/01/25 07:13:34;;;;;;;24.35;15.93;;;;;;;0.93;75.86;100684.16;5067158;28;20182;-68
2022/01/25 07:16:06;;;;;;;29.92;18.08;;;;;;;-0.38;76.08;100439.16;5066274;28;20040;-68
2022/01/25 07:18:35;;;;;;;27.58;16.10;;;;;;;0.92;76.12;100665.00;5066986;28;20040;-68
2022/01/25 07:21:05;;;;;;;27.80;17.52;;;;;;;0.92;76.15;100665.00;5066884;28;20108;-68
2022/01/25 07:23:35;;;;;;;23.92;16.90;;;;;;;0.90;76.18;100656.28;5067300;28;20041;-68
2022/01/25 07:26:05;;;;;;;25.10;16.88;;;;;;;0.93;76.23;100658.91;5066423;28;20111;-68
2022/01/25 07:28:36;;;;;;;26.70;16.90;;;;;;;0.96;76.16;100662.41;5066912;28;20056;-68
2022/01/25 07:31:06;;;;;;;22.23;14.77;;;;;;;0.98;75.78;100679.81;5066298;28;20047;-68
2022/01/25 07:33:35;;;;;;;21.80;15.55;;;;;;;0.99;76.13;100667.63;5067209;28;20109;-68
2022/01/25 07:36:06;;;;;;;26.70;15.82;;;;;;;0.98;75.99;100668.50;5066741;28;20075;-68
2022/01/25 07:38:35;;;;;;;23.83;15.43;;;;;;;0.99;75.97;100665.03;5066663;28;20104;-68
2022/01/25 07:41:05;;;;;;;22.85;14.95;;;;;;;0.96;76.05;100672.84;5066950;28;20041;-67
2022/01/25 07:43:36;;;;;;;21.50;14.20;;;;;;;0.97;76.00;100666.75;5065835;28;20068;-68
2022/01/25 07:46:08;;;;;;;21.58;15.60;;;;;;;1.00;75.96;100664.16;5066762;28;20047;-68
2022/01/25 07:48:36;;;;;;;23.25;15.52;;;;;;;1.04;75.79;100669.41;5066501;28;20087;-68
2022/01/25 07:51:06;;;;;;;22.02;13.43;;;;;;;1.05;75.79;100665.06;5066620;28;20049;-68
2022/01/25 07:53:37;;;;;;;23.08;14.82;;;;;;;1.06;75.85;100672.03;5065589;28;20086;-68
2022/01/25 07:56:06;;;;;;;25.55;16.30;;;;;;;1.06;75.70;100670.28;5066307;28;20029;-68
2022/01/25 07:58:36;;;;;;;21.95;14.90;;;;;;;1.09;75.56;100678.13;5066600;28;20047;-68
2022/01/25 08:01:08;;;;;;;18.40;12.75;;;;;;;1.08;75.68;100670.28;5066200;28;20098;-68
2022/01/25 08:03:38;;;;;;;18.23;11.70;;;;;;;1.07;75.63;100673.75;5066566;28;20048;-69
2022/01/25 08:06:07;;;;;;;21.30;13.00;;;;;;;-0.02;75.62;100505.41;5065882;28;20056;-69
2022/01/25 08:08:38;;;;;;;21.52;13.18;;;;;;;1.06;75.56;100682.47;5066422;28;20108;-69
2022/01/25 08:11:07;;;;;;;20.33;14.00;;;;;;;1.06;75.59;100670.28;5066067;28;20104;-69
2022/01/25 08:13:38;;;;;;;18.00;12.25;;;;;;;0.81;75.57;100622.31;5066291;28;20087;-69
2022/01/25 08:16:09;;;;;;;17.00;11.57;;;;;;;1.09;75.70;100656.38;5066065;28;20044;-68
2022/01/25 08:18:37;;;;;;;15.75;11.45;;;;;;;1.10;75.68;100663.34;5066272;28;20029;-68
2022/01/25 08:21:07;;;;;;;20.02;12.15;;;;;;;0.79;75.45;100608.38;5065313;28;20112;-68
2022/01/25 08:23:38;;;;;;;17.10;11.60;;;;;;;1.10;75.60;100655.50;5065856;28;20041;-69
2022/01/25 08:26:08;;;;;;;19.13;12.95;;;;;;;0.94;75.64;100636.28;5065884;28;20048;-68
2022/01/25 08:28:38;;;;;;;16.48;11.70;;;;;;;1.12;75.48;100665.09;5065120;28;20044;-68
2022/01/25 08:31:09;;;;;;;14.95;10.18;;;;;;;1.13;75.50;100672.06;5065256;28;20041;-68
2022/01/25 08:33:39;;;;;;;15.73;10.93;;;;;;;1.11;75.35;100668.56;5065716;28;20036;-68
2022/01/25 08:36:08;;;;;;;18.25;12.23;;;;;;;1.11;75.53;100655.50;5065153;28;20096;-69
2022/01/25 08:38:38;;;;;;;16.13;10.25;;;;;;;1.14;75.26;100662.47;5066089;28;20041;-68
2022/01/25 08:41:08;;;;;;;16.02;9.80;;;;;;;1.17;75.27;100652.91;5064917;28;20037;-68
2022/01/25 08:43:39;;;;;;;17.85;10.75;;;;;;;1.17;75.30;100665.09;5065381;28;20327;-68
2022/01/25 08:46:12;;;;;;;14.95;10.38;;;;;;;1.17;75.36;100665.09;5065408;28;20103;-68
2022/01/25 08:48:45;;;;;;;13.90;10.18;;;;;;;1.14;75.28;100665.09;5065731;28;20086;-68
2022/01/25 08:51:18;;;;;;;15.35;10.65;;;;;;;0.25;75.10;100534.22;5065521;28;20045;-69
2022/01/25 08:53:50;;;;;;;15.32;10.70;;;;;;;1.13;75.17;100660.75;5064582;28;20100;-69
2022/01/25 08:56:22;;;;;;;18.83;10.05;;;;;;;1.18;75.33;100661.63;5065498;28;20087;-68
2022/01/25 08:58:55;;;;;;;12.55;8.65;;;;;;;0.90;75.09;100604.09;5065508;28;20087;-68
2022/01/25 09:01:29;;;;;;;15.38;9.63;;;;;;;1.22;75.00;100661.63;5065353;28;20045;-69
2022/01/25 09:04:01;;;;;;;12.50;9.07;;;;;;;1.23;74.84;100655.56;5064719;28;20055;-69
2022/01/25 09:06:34;;;;;;;11.48;8.45;;;;;;;1.25;74.84;100655.56;5064423;28;20083;-68
2022/01/25 09:09:09;;;;;;;13.25;8.57;;;;;;;1.23;74.85;100692.13;5065362;28;20094;-69
2022/01/25 09:11:42;;;;;;;10.73;7.53;;;;;;;1.20;74.76;100665.97;5065044;28;20044;-69
2022/01/25 09:14:16;;;;;;;14.85;9.15;;;;;;;1.19;74.82;100658.16;5065128;28;20113;-68
2022/01/25 09:16:50;;;;;;;10.43;8.32;;;;;;;1.18;74.85;100659.88;5065182;28;20281;-69
2022/01/25 09:19:22;;;;;;;12.98;8.43;;;;;;;1.20;74.87;100660.75;5065295;28;20098;-69
2022/01/25 09:21:55;;;;;;;11.77;8.30;;;;;;;0.73;74.70;100582.25;5065020;28;20048;-69
2022/01/25 09:24:28;;;;;;;12.77;9.23;;;;;;;0.94;74.79;100647.59;5065183;28;20049;-68
2022/01/25 09:27:01;;;;;;;12.68;9.40;;;;;;;1.20;74.79;100654.66;5064884;28;20067;-67
2022/01/25 09:29:34;;;;;;;13.90;9.20;;;;;;;1.21;74.74;100665.13;5065122;28;20201;-68
2022/01/25 09:32:08;;;;;;;12.25;8.55;;;;;;;1.11;74.62;100631.13;5065076;28;20049;-68
2022/01/25 09:34:40;;;;;;;11.30;7.93;;;;;;;1.21;74.76;100651.19;5065107;28;20048;-68
2022/01/25 09:37:13;;;;;;;13.98;8.57;;;;;;;1.24;74.85;100643.38;5064783;28;20095;-68
2022/01/25 09:39:45;;;;;;;13.75;8.68;;;;;;;1.26;74.79;100645.13;5065079;28;20044;-68
2022/01/25 09:42:17;;;;;;;12.38;8.50;;;;;;;1.23;74.49;100637.28;5065062;28;20049;-68
2022/01/25 09:44:50;;;;;;;10.30;7.43;;;;;;;1.24;74.62;100639.00;5064791;28;20091;-68
2022/01/25 09:47:23;;;;;;;12.38;7.75;;;;;;;1.25;74.41;100652.94;5063918;28;20292;-68
2022/01/25 09:49:56;;;;;;;11.93;9.00;;;;;;;1.27;74.42;100651.22;5065099;28;20037;-68
2022/01/25 09:52:28;;;;;;;13.32;8.15;;;;;;;1.28;74.61;100645.13;5064604;28;20108;-68
2022/01/25 09:55:01;;;;;;;13.57;7.63;;;;;;;1.29;74.39;100646.00;5065788;28;20052;-68
2022/01/25 09:57:34;;;;;;;11.23;9.07;;;;;;;1.30;74.34;100640.78;5068655;28;20087;-68
2022/01/25 10:00:09;;;;;;;11.88;8.65;;;;;;;1.31;74.43;100629.47;5068811;28;20037;-68
2022/01/25 10:02:49;;;;;;;12.35;7.68;;;;;;;1.31;74.40;100631.19;5068758;28;20292;-68
2022/01/25 10:05:27;;;;;;;10.68;7.85;;;;;;;1.30;74.44;100632.94;5068533;28;20327;-68
2022/01/25 10:08:02;;;;;;;15.82;8.35;;;;;;;1.31;74.48;100631.19;5068487;28;20293;-68
2022/01/25 10:10:37;;;;;;;11.90;8.13;;;;;;;1.32;74.54;100627.72;5068768;28;20041;-68
2022/01/25 10:13:12;;;;;;;12.60;9.15;;;;;;;1.26;74.62;100628.56;5067474;28;20091;-68
2022/01/25 10:15:45;;;;;;;13.57;8.93;;;;;;;1.30;74.72;100629.44;5068599;28;20090;-68
2022/01/25 10:18:19;;;;;;;11.88;9.13;;;;;;;0.99;74.50;100571.91;5067451;28;20051;-68
2022/01/25 10:20:52;;;;;;;10.15;6.82;;;;;;;1.31;74.57;100620.75;5068227;28;20041;-68
2022/01/25 10:23:30;;;;;;;11.13;7.85;;;;;;;1.32;74.64;100623.38;5067440;28;20071;-68
2022/01/25 10:26:04;;;;;;;14.27;8.57;;;;;;;1.35;74.44;100620.75;5068049;28;20041;-68
2022/01/25 10:28:36;;;;;;;11.57;7.90;;;;;;;1.39;74.32;100617.28;5068275;28;20041;-68
2022/01/25 10:31:07;;;;;;;9.75;6.97;;;;;;;1.39;74.11;100611.19;5067643;28;20204;-67
2022/01/25 10:33:44;;;;;;;10.93;7.85;;;;;;;1.40;74.21;100618.16;5067752;28;20045;-67
2022/01/25 10:36:14;;;;;;;11.38;8.40;;;;;;;1.37;74.15;100608.56;5068129;28;20221;-67
2022/01/25 10:38:45;;;;;;;11.88;7.25;;;;;;;1.10;74.27;100565.00;5067608;28;20067;-67
2022/01/25 10:41:19;;;;;;;12.73;7.85;;;;;;;1.33;74.53;100608.56;5067815;28;20045;-67
2022/01/25 10:43:54;;;;;;;10.50;6.57;;;;;;;1.31;74.27;100597.25;5067669;28;20091;-67
2022/01/25 10:46:27;;;;;;;;;;;;;;;1.24;74.42;100605.06;5068422;28;20041;-67
2022/01/25 10:49:03;;;;;;;12.27;8.13;;;;;;;1.30;74.33;100606.81;5067724;28;19927;-67
2022/01/25 10:51:38;;;;;;;11.00;8.55;;;;;;;1.28;74.48;100597.22;5067758;28;20098;-69
2022/01/25 10:54:12;;;;;;;13.40;8.57;;;;;;;1.24;74.67;100604.19;5067338;28;20045;-67
2022/01/25 10:56:47;;;;;;;10.27;7.43;;;;;;;1.31;74.39;100599.84;5067584;28;20285;-67
2022/01/25 10:59:22;;;;;;;11.40;8.13;;;;;;;0.98;74.57;100546.69;5067681;28;20049;-68
2022/01/25 11:01:56;;;;;;;11.50;7.65;;;;;;;0.14;74.17;100415.09;5066904;28;20107;-68
2022/01/25 11:04:33;;;;;;;12.00;8.57;;;;;;;1.04;74.30;100545.81;5067176;28;20045;-68
2022/01/25 11:07:08;;;;;;;12.00;8.23;;;;;;;1.36;74.21;100599.00;5066442;28;20041;-67
2022/01/25 11:09:44;;;;;;;;;;;;;;;1.29;74.49;100605.06;5067490;28;20040;-68
2022/01/25 11:12:19;;;;;;;12.75;8.27;;;;;;;1.29;74.59;100601.59;5067005;28;19967;-68
2022/01/25 11:14:53;;;;;;;11.98;8.40;;;;;;;1.30;74.43;100591.16;5067038;28;20086;-67
2022/01/25 11:17:27;;;;;;;12.32;8.80;;;;;;;1.30;74.66;100592.88;5067386;28;20339;-69
2022/01/25 11:20:04;;;;;;;11.90;9.07;;;;;;;1.31;74.52;100592.00;5067032;28;20176;-69
2022/01/25 11:22:36;;;;;;;11.18;8.13;;;;;;;1.31;74.56;100595.50;5066072;28;20086;-69
2022/01/25 11:25:09;;;;;;;14.43;10.45;;;;;;;1.31;74.93;100590.28;5067142;28;20064;-68
2022/01/25 11:27:43;;;;;;;10.60;7.28;;;;;;;1.32;75.01;100588.53;5066797;28;20083;-67
2022/01/25 11:30:19;;;;;;;15.90;9.38;;;;;;;1.35;74.93;100578.09;5067035;28;20041;-68
2022/01/25 11:32:54;;;;;;;13.15;8.05;;;;;;;1.11;74.75;100534.53;5065767;28;20041;-67
2022/01/25 11:35:29;;;;;;;16.17;8.45;;;;;;;-0.10;74.68;100329.88;5067066;28;20037;-68
2022/01/25 11:38:03;;;;;;;14.13;8.52;;;;;;;1.36;74.85;100569.38;5067115;28;20037;-67
2022/01/25 11:40:38;;;;;;;13.90;8.00;;;;;;;1.36;74.75;100565.03;5066632;28;20316;-68
2022/01/25 11:43:14;;;;;;;11.70;7.43;;;;;;;1.37;75.02;100577.22;5066975;28;20044;-69
2022/01/25 11:45:49;;;;;;;12.07;8.25;;;;;;;1.36;74.83;100575.47;5065869;28;20045;-69
2022/01/25 11:48:23;;;;;;;12.05;7.55;;;;;;;1.09;74.94;100523.22;5065798;28;20048;-68
2022/01/25 11:50:57;;;;;;;12.43;8.23;;;;;;;1.39;74.88;100557.19;5066722;28;20048;-69
2022/01/25 11:53:30;;;;;;;10.90;7.75;;;;;;;1.44;74.73;100541.53;5066541;28;20044;-69
2022/01/25 11:56:08;;;;;;;10.27;7.68;;;;;;;1.11;74.55;100493.63;5066950;28;20098;-70
2022/01/25 11:58:38;;;;;;;15.50;12.57;;;;;;;1.12;74.24;100494.50;5066403;28;20049;-68
2022/01/25 12:01:17;;;;;;;11.90;8.45;;;;;;;0.84;74.52;100455.28;5066564;28;20037;-68
2022/01/25 12:03:52;;;;;;;13.63;8.38;;;;;;;-0.44;74.56;100235.13;5066085;28;20086;-69
2022/01/25 12:06:29;;;;;;;13.52;8.10;;;;;;;1.40;74.55;100535.44;5066008;28;20069;-68
2022/01/25 12:09:10;;;;;;;11.55;8.75;;;;;;;0.80;74.59;100437.91;5065726;28;20040;-69
2022/01/25 12:11:47;;;;;;;12.57;7.57;;;;;;;1.39;74.70;100525.84;5065499;28;20100;-68
2022/01/25 12:14:28;;;;;;;12.38;8.88;;;;;;;1.10;74.66;100514.50;5065198;28;20041;-70
2022/01/25 12:17:13;;;;;;;13.77;9.75;;;;;;;1.42;74.47;100530.22;5065739;28;20103;-70
2022/01/25 12:19:48;;;;;;;;;;;;;;;1.37;74.88;100532.81;5066706;28;20037;-69
2022/01/25 12:22:38;;;;;;;10.18;7.13;;;;;;;1.18;74.79;100491.88;5066235;28;19917;-68
2022/01/25 12:25:22;;;;;;;10.30;7.68;;;;;;;1.40;74.63;100524.13;5066042;28;20036;-69
2022/01/25 12:27:58;;;;;;;13.07;9.30;;;;;;;1.15;74.87;100477.09;5065225;28;20105;-69
2022/01/25 12:30:34;;;;;;;12.13;7.13;;;;;;;1.42;74.89;100525.84;5065218;28;20119;-69
2022/01/25 12:33:08;;;;;;;11.43;7.65;;;;;;;1.49;74.60;100519.75;5065497;28;20047;-68
2022/01/25 12:35:47;;;;;;;12.50;7.93;;;;;;;1.44;74.63;100518.03;5065973;28;20033;-69
2022/01/25 12:38:23;;;;;;;11.35;7.43;;;;;;;1.46;74.30;100516.28;5065052;28;20041;-69
2022/01/25 12:41:06;;;;;;;10.93;7.28;;;;;;;1.44;74.38;100518.88;5065784;28;20041;-69
2022/01/25 12:43:40;;;;;;;13.10;7.80;;;;;;;0.90;74.52;100436.16;5048039;28;20041;-69
2022/01/25 12:46:11;;;;;;;13.63;8.60;;;;;;;0.82;74.54;100430.06;5065524;28;20041;-68
2022/01/25 12:48:42;;;;;;;10.20;6.60;;;;;;;1.39;74.66;100523.25;5065914;28;20057;-69
2022/01/25 12:51:16;;;;;;;12.85;8.02;;;;;;;1.10;74.54;100476.22;5065802;28;20090;-68
2022/01/25 12:53:49;;;;;;;12.15;7.35;;;;;;;1.12;74.58;100474.47;5065455;28;20067;-69
2022/01/25 12:56:23;;;;;;;13.07;8.38;;;;;;;1.37;74.68;100522.38;5064688;28;20052;-69
2022/01/25 12:58:59;;;;;;;15.10;9.30;;;;;;;1.40;74.65;100518.88;5065391;28;20041;-69
2022/01/25 13:01:33;;;;;;;11.32;7.47;;;;;;;1.40;74.53;100516.28;5048217;28;20323;-69
2022/01/25 13:04:07;;;;;;;12.60;7.82;;;;;;;1.42;74.55;100510.19;5064888;28;20052;-69